Dickey, North Dakota
Current Conditions -  °F | °C
As of 4:56 AM on Saturday 01 Nov 2014 (Local Time) from KJMS Reporting Station
Clear Clear  
Wind Chill: 19°   Ceiling: Unl
Heat Index: 31°   Visibility: 10mi
Dew Point: 18°   Wind: 18mph
Humidity: 59%   Direction: 160°SSE
Pressure: 30.09"   Gusts: 26mph
Location:  46.54°N, 98.47°W
Report Text: KJMS 010956Z AUTO 16016G23KT 10SM CLR M01/M08 A3009 RMK AO2 SLP207 T10061078
Loading
Personal Weather Stations






























Interactive Weather Map New forecast layout! Learn more

10-Day Weather Forecast

Advertisements
Track Severe Weather on mobile